Pagrindinis puslapis
METAR-TAF:

METAR-TAF

Oro uostai :

Palembangas, Indonezija

platuma: 02-54S, ilguma: 104-42E, Aukštis: 10 m

Dabartinis oras

Ataskaita buvo paskelbta 20 valandos ir 29 minutes, ne 12:00 UTC
Vėjas 6 kt iš Šiaurės/Šiaurės Rytų
Temperatūra 28°C
Drėgmė 84%
Slėgis 1009 hPa
Matomumas 10 km arba daugiau
Išsisklaidę debesys ne aukštis 1000 ft

METAR: WIPP 261200Z 03006KT 9999 SCT010 28/25 Q1009 NOSIG

Laikas: 15:29 (08:29 UTC)

Prognozė

Ataskaita buvo paskelbta 3 valandos ir 29 minutes, ne 05:00 UTC
Prognozė galioja nuo 27 metu 06 UTC su 28 metu 06 UTC
Vėjas 8 kt iš Šiaurės/Šiaurės Vakarų
Matomumas 10 km arba daugiau
Su prošvaistėmis ne aukštis 1000 ft
Tikimybė 30% :
Laikinai
nuo 27 metu 10 UTC su 27 metu 14 UTC
Matomumas: 3000 m
Mažai debesys ne aukštis 1000 ft, Liūtiniai kamuoliniai debesys.
lietus
Laikinai
nuo 27 metu 20 UTC su 27 metu 24 UTC
Matomumas: 3000 m
Mažai debesys ne aukštis 1000 ft
rūkana

TAF: WIPP 270500Z 2706/2806 34008KT 9999 BKN010 PROB30 TEMPO 2710/2714 3000 RA FEW010CB TEMPO 2720/2724 3000 BR FEW010

Orai ataskaitas ir orų prognozės (METAR, TAF).

turimą stotys yra geltonos ir raudonos taškus žemėlapyje.

Perkelti pele per norėdami pamatyti stoties vardą.

Tada spustelėkite, norėdami matyti oro stebėjimo ir prognozės.

Norėdami pakeisti žemėlapį: spustelėkite ant žalios mygtukų su juodo kryžiaus žemyn,; žalią mygtuką su brūkšneliu, jei norite nutolinti; arba žalių rodyklių gretimoms žemėlapius.


METAR-TAF: